Flight Track Log - Related Links

Times and Time Zones

All times are in EDT time to prevent confusion due to time zone crossing. See the SKW5564 flight status page for this flight to view local times or setup timezone preferences in your user account.

Time Position Orientation Groundspeed Altitude Reporting Facility
EDT Latitude Longitude Course Direction KTS MPH feet Rate Location/Type
Fri 07:00:00 PM 33.8367 -84.9047 297° West  Level Estimated
Fri 07:01:00 PM 33.8863 -85.0243 297° West  Level Estimated
Fri 07:02:00 PM 33.9359 -85.1440 297° West  Level Estimated
Fri 07:03:00 PM 33.9854 -85.2638 296° West  Level Estimated
Fri 07:04:00 PM 34.0348 -85.3838 296° West  Level Estimated
Fri 07:05:00 PM 34.0840 -85.5039 296° West  Level Estimated
Fri 07:06:00 PM 34.1331 -85.6242 296° West  Level Estimated
Fri 07:07:00 PM 34.1821 -85.7446 296° West  Level Estimated
Fri 07:08:00 PM 34.2310 -85.8651 296° West  Level Estimated
Fri 07:09:00 PM 34.2798 -85.9858 296° West  Level Estimated
Fri 07:10:00 PM 34.3284 -86.1066 296° West  Level Estimated
Fri 07:11:00 PM 34.3769 -86.2276 296° West  Level Estimated
Fri 07:12:00 PM 34.4254 -86.3487 296° West  Level Estimated
Fri 07:13:00 PM 34.4736 -86.4699 296° West  Level Estimated
Fri 07:14:00 PM 34.5218 -86.5913 296° West  Level Estimated
Fri 07:15:00 PM 34.5699 -86.7128 296° West  Level Estimated
Fri 07:16:00 PM 34.6178 -86.8345 296° West  Level Estimated
Fri 07:17:00 PM 34.6656 -86.9563 296° West  Level Estimated
Fri 07:18:00 PM 34.7133 -87.0782 295° West  Level Estimated
Fri 07:19:00 PM 34.7609 -87.2003 295° West  Level Estimated
Fri 07:20:00 PM 34.8083 -87.3225 295° West  Level Estimated
Fri 07:21:00 PM 34.8556 -87.4449 295° West  Level Estimated
Fri 07:22:00 PM 34.9028 -87.5674 295° West  Level Estimated
Fri 07:23:00 PM 34.9499 -87.6900 295° West  Level Estimated
Fri 07:24:00 PM 34.9968 -87.8128 295° West  Level Estimated
Fri 07:25:00 PM 35.0437 -87.9357 295° West  Level Estimated
Fri 07:26:00 PM 35.0904 -88.0588 295° West  Level Estimated
Fri 07:27:00 PM 35.1370 -88.1820 295° West  Level Estimated
Fri 07:28:00 PM 35.1834 -88.3054 295° West  Level Estimated
Fri 07:29:00 PM 35.2297 -88.4288 295° West  Level Estimated
Fri 07:30:00 PM 35.2759 -88.5525 295° West  Level Estimated
Fri 07:31:00 PM 35.3220 -88.6762 295° West  Level Estimated
Fri 07:32:00 PM 35.3680 -88.8001 294° West  Level Estimated
Fri 07:33:00 PM 35.4138 -88.9242 294° West  Level Estimated
Fri 07:34:00 PM 35.4595 -89.0484 294° West  Level Estimated
Fri 07:35:00 PM 35.5051 -89.1727 294° West  Level Estimated
Fri 07:36:00 PM 35.5505 -89.2972 294° West  Level Estimated
Fri 07:37:00 PM 35.5958 -89.4218 294° West  Level Estimated
Fri 07:38:00 PM 35.6410 -89.5466 294° West  Level Estimated
Fri 07:39:00 PM 35.6861 -89.6715 294° West  Level Estimated
Fri 07:40:00 PM 35.7310 -89.7965 294° West  Level Estimated
Fri 07:41:00 PM 35.7758 -89.9217 294° West  Level Estimated
Fri 07:42:00 PM 35.8205 -90.0470 294° West  Level Estimated
Fri 07:43:00 PM 35.8650 -90.1725 294° West  Level Estimated
Fri 07:44:00 PM 35.9094 -90.2981 294° West  Level Estimated
Fri 07:45:00 PM 35.9537 -90.4238 294° West  Level Estimated
Fri 07:46:00 PM 35.9979 -90.5497 293° West  Level Estimated
Fri 07:47:00 PM 36.0419 -90.6757 293° West  Level Estimated
Fri 07:48:00 PM 36.0858 -90.8019 293° West  Level Estimated
Fri 07:49:00 PM 36.1295 -90.9282 293° West  Level Estimated
Fri 07:50:00 PM 36.1731 -91.0546 293° West  Level Estimated
Fri 07:51:00 PM 36.2166 -91.1812 293° West  Level Estimated
Fri 07:52:00 PM 36.2599 -91.3080 293° West  Level Estimated
Fri 07:53:00 PM 36.3032 -91.4348 293° West  Level Estimated
Fri 07:54:00 PM 36.3462 -91.5618 293° West  Level Estimated
Fri 07:55:00 PM 36.3892 -91.6890 293° West  Level Estimated
Fri 07:56:00 PM 36.4320 -91.8163 293° West  Level Estimated
Fri 07:57:00 PM 36.4747 -91.9437 293° West  Level Estimated
Fri 07:58:00 PM 36.5172 -92.0713 293° West  Level Estimated
Fri 07:59:00 PM 36.5596 -92.1990 292° West  Level Estimated
Fri 08:00:00 PM 36.6019 -92.3268 292° West  Level Estimated
Fri 08:01:00 PM 36.6440 -92.4548 292° West  Level Estimated
Fri 08:02:00 PM 36.6860 -92.5830 292° West  Level Estimated
Fri 08:03:00 PM 36.7279 -92.7112 292° West  Level Estimated
Fri 08:04:00 PM 36.7696 -92.8396 292° West  Level Estimated
Fri 08:05:00 PM 36.8112 -92.9682 292° West  Level Estimated
Fri 08:06:00 PM 36.8526 -93.0969 292° West  Level Estimated
Fri 08:07:00 PM 36.8940 -93.2257 292° West  Level Estimated
Fri 08:08:00 PM 36.9351 -93.3547 292° West  Level Estimated
Fri 08:09:00 PM 36.9762 -93.4838 292° West  Level Estimated
Fri 08:10:00 PM 37.0170 -93.6130 292° West  Level Estimated
Fri 08:11:00 PM 37.0578 -93.7424 292° West  Level Estimated
Fri 08:12:00 PM 37.0984 -93.8719 291° West  Level Estimated
Fri 08:13:00 PM 37.1389 -94.0016 291° West  Level Estimated
Fri 08:14:00 PM 37.1792 -94.1314 291° West  Level Estimated
Fri 08:15:00 PM 37.2194 -94.2613 291° West  Level Estimated
Fri 08:16:00 PM 37.2594 -94.3914 291° West  Level Estimated
Fri 08:17:00 PM 37.2993 -94.5216 291° West  Level Estimated
Fri 08:18:00 PM 37.3391 -94.6520 291° West  Level Estimated
Fri 08:19:00 PM 37.3787 -94.7825 291° West  Level Estimated
Fri 08:20:00 PM 37.4181 -94.9131 291° West  Level Estimated
Fri 08:21:00 PM 37.4575 -95.0439 291° West  Level Estimated
Fri 08:22:00 PM 37.4966 -95.1748 291° West  Level Estimated
Fri 08:23:00 PM 37.5357 -95.3058 291° West  Level Estimated
Fri 08:24:00 PM 37.5746 -95.4370 291° West  Level Estimated
Fri 08:25:00 PM 37.6133 -95.5683 290° West  Level Estimated
Fri 08:26:00 PM 37.6519 -95.6998 290° West  Level Estimated
Fri 08:27:00 PM 37.6903 -95.8314 290° West  Level Estimated
Fri 08:28:00 PM 37.7287 -95.9631 290° West  Level Estimated
Fri 08:29:00 PM 37.7668 -96.0949 290° West  Level Estimated
Fri 08:30:00 PM 37.8048 -96.2269 290° West  Level Estimated
Fri 08:31:00 PM 37.8427 -96.3591 290° West  Level Estimated
Fri 08:32:00 PM 37.8804 -96.4913 290° West  Level Estimated
Fri 08:33:00 PM 37.9180 -96.6237 290° West  Level Estimated
Fri 08:34:00 PM 37.9554 -96.7563 290° West  Level Estimated
Fri 08:35:00 PM 37.9927 -96.8889 290° West  Level Estimated
Fri 08:36:00 PM 38.0298 -97.0218 290° West  Level Estimated
Fri 08:37:00 PM 38.0668 -97.1547 289° West  Level Estimated
Fri 08:38:00 PM 38.1036 -97.2878 289° West  Level Estimated
Fri 08:39:00 PM 38.1403 -97.4210 289° West  Level Estimated
Fri 08:40:00 PM 38.1768 -97.5543 289° West  Level Estimated
Fri 08:41:00 PM 38.2132 -97.6878 289° West  Level Estimated
Fri 08:42:00 PM 38.2494 -97.8214 289° West  Level Estimated
Fri 08:43:00 PM 38.2854 -97.9551 289° West  Level Estimated
Fri 08:44:00 PM 38.3214 -98.0890 289° West  Level Estimated
Fri 08:45:00 PM 38.3571 -98.2230 289° West  Level Estimated
Fri 08:46:00 PM 38.3927 -98.3572 289° West  Level Estimated
Fri 08:47:00 PM 38.4282 -98.4914 289° West  Level Estimated
Fri 08:48:00 PM 38.4635 -98.6258 289° West  Level Estimated
Fri 08:49:00 PM 38.4987 -98.7604 288° West  Level Estimated
Fri 08:50:00 PM 38.5337 -98.8951 288° West  Level Estimated
Fri 08:51:00 PM 38.5685 -99.0299 288° West  Level Estimated
Fri 08:52:00 PM 38.6032 -99.1648 288° West  Level Estimated
Fri 08:53:00 PM 38.6377 -99.2999 288° West  Level Estimated
Fri 08:54:00 PM 38.6721 -99.4350 288° West  Level Estimated
Fri 08:55:00 PM 38.7063 -99.5704 288° West  Level Estimated
Fri 08:56:00 PM 38.7404 -99.7058 288° West  Level Estimated
Fri 08:57:00 PM 38.7743 -99.8414 288° West  Level Estimated
Fri 08:58:00 PM 38.8080 -99.9771 288° West  Level Estimated
Fri 08:59:00 PM 38.8416 -100.1129 288° West  Level Estimated
Fri 09:00:00 PM 38.8751 -100.2489 288° West  Level Estimated
Fri 09:01:00 PM 38.9084 -100.3850 287° West  Level Estimated
Fri 09:02:00 PM 38.9415 -100.5212 287° West  Level Estimated
Fri 09:03:00 PM 38.9744 -100.6575 287° West  Level Estimated
Fri 09:04:00 PM 39.0073 -100.7940 287° West  Level Estimated
Fri 09:05:00 PM 39.0399 -100.9306 287° West  Level Estimated
Fri 09:06:00 PM 39.0724 -101.0673 287° West  Level Estimated
Fri 09:07:00 PM 39.1047 -101.2042 287° West  Level Estimated
Fri 09:08:00 PM 39.1369 -101.3411 287° West  Level Estimated
Fri 09:09:00 PM 39.1689 -101.4782 287° West  Level Estimated
Fri 09:10:00 PM 39.2008 -101.6155 287° West  Level Estimated
Fri 09:11:00 PM 39.2324 -101.7528 287° West  Level Estimated
Fri 09:12:00 PM 39.2640 -101.8903 287° West  Level Estimated
Fri 09:13:00 PM 39.2953 -102.0279 286° West  Level Estimated
Fri 09:14:00 PM 39.3265 -102.1656 286° West  Level Estimated
Fri 09:15:00 PM 39.3576 -102.3034 286° West  Level Estimated
Fri 09:16:00 PM 39.3884 -102.4414 286° West  Level Estimated
Fri 09:17:00 PM 39.4191 -102.5795 286° West  Level Estimated
Fri 09:18:00 PM 39.4497 -102.7177 286° West  Level Estimated
Fri 09:19:00 PM 39.4801 -102.8560 286° West  Level Estimated
Fri 09:20:00 PM 39.5103 -102.9945 286° West  Level Estimated
Fri 09:21:00 PM 39.5404 -103.1330 286° West  Level Estimated
Fri 09:22:00 PM 39.5702 -103.2717 286° West  Level Estimated
Fri 09:23:00 PM 39.6000 -103.4105 286° West  Level Estimated
Fri 09:24:00 PM 39.6295 -103.5494 285° West  Level Estimated
Fri 09:25:00 PM 39.6589 -103.6885 285° West  Level Estimated
Fri 09:26:00 PM 39.6882 -103.8276 285° West  Level Estimated
Fri 09:27:00 PM 39.7172 -103.9669 285° West  Level Estimated
Fri 09:28:00 PM 39.7461 -104.1063 285° West  Level Estimated
Fri 09:29:00 PM 39.7748 -104.2458 285° West  Level Estimated
Fri 09:30:00 PM 39.8034 -104.3854 285° West  Level Estimated
Fri 09:31:00 PM 39.8318 -104.5252 285° West  Level Estimated
Fri 09:32:00 PM 39.8600 -104.6650 285° West  Level Estimated
Fri 09:33:00 PM 39.8617 -104.6732 285° West  Level Estimated
Fri 09:34:00 PM 39.8617 -104.6732 142° Southeast  Level Estimated
Fri 09:35:00 PM 39.8617 -104.6732 142° Southeast  Level Estimated
Fri 09:36:00 PM 39.8617 -104.6732 142° Southeast  Level Estimated
Fri 09:37:00 PM 39.8617 -104.6732 142° Southeast  Level Estimated
Fri 09:38:00 PM 39.8617 -104.6732 142° Southeast  Level Estimated
Fri 09:39:00 PM 39.8617 -104.6732 142° Southeast  Level Estimated
Fri 09:40:00 PM 39.8617 -104.6732 142° Southeast  Level Estimated
Fri 09:41:00 PM 39.8617 -104.6732 142° Southeast  Level Estimated
Fri 09:42:00 PM 39.8617 -104.6732 142° Southeast  Level Estimated
Fri 09:43:00 PM 39.8617 -104.6732 142° Southeast  Level Estimated
Fri 09:44:00 PM 39.8617 -104.6732 142° Southeast  Level Estimated
Fri 09:45:00 PM 39.8617 -104.6732 142° Southeast  Level Estimated
Fri 09:46:00 PM 39.8617 -104.6732 142° Southeast  Level Estimated

Login

Don't have an account? Register now (free) for customized features, flight alerts, and more!